sensor_id;sensor_type;location;lat;lon;timestamp;temperature;humidity
67196;DHT22;54122;53.538;49.366;2023-08-01T00:01:37;16.50;92.30
67196;DHT22;54122;53.538;49.366;2023-08-01T00:04:03;16.50;92.40
67196;DHT22;54122;53.538;49.366;2023-08-01T00:06:30;16.40;92.50
67196;DHT22;54122;53.538;49.366;2023-08-01T00:08:56;16.40;92.50
67196;DHT22;54122;53.538;49.366;2023-08-01T00:11:22;16.30;92.60
67196;DHT22;54122;53.538;49.366;2023-08-01T00:13:49;16.20;92.90
67196;DHT22;54122;53.538;49.366;2023-08-01T00:16:15;16.20;93.10
67196;DHT22;54122;53.538;49.366;2023-08-01T00:18:41;16.20;93.10
67196;DHT22;54122;53.538;49.366;2023-08-01T00:21:10;16.20;93.10
67196;DHT22;54122;53.538;49.366;2023-08-01T00:23:38;16.20;93.00
67196;DHT22;54122;53.538;49.366;2023-08-01T00:26:04;16.20;93.10
67196;DHT22;54122;53.538;49.366;2023-08-01T00:28:31;16.10;93.10
67196;DHT22;54122;53.538;49.366;2023-08-01T00:33:30;16.00;93.00
67196;DHT22;54122;53.538;49.366;2023-08-01T00:35:57;16.00;93.20
67196;DHT22;54122;53.538;49.366;2023-08-01T00:38:23;16.00;93.70
67196;DHT22;54122;53.538;49.366;2023-08-01T00:40:49;15.90;93.20
67196;DHT22;54122;53.538;49.366;2023-08-01T00:43:17;15.90;93.20
67196;DHT22;54122;53.538;49.366;2023-08-01T00:45:44;15.80;93.20
67196;DHT22;54122;53.538;49.366;2023-08-01T00:48:10;15.70;93.20
67196;DHT22;54122;53.538;49.366;2023-08-01T00:50:38;15.70;93.30
67196;DHT22;54122;53.538;49.366;2023-08-01T00:53:05;15.60;93.30
67196;DHT22;54122;53.538;49.366;2023-08-01T00:55:32;15.60;93.50
67196;DHT22;54122;53.538;49.366;2023-08-01T00:58:00;15.50;93.60
67196;DHT22;54122;53.538;49.366;2023-08-01T01:00:26;15.40;93.70
67196;DHT22;54122;53.538;49.366;2023-08-01T01:02:52;15.40;93.80
67196;DHT22;54122;53.538;49.366;2023-08-01T01:05:20;15.40;93.80
67196;DHT22;54122;53.538;49.366;2023-08-01T01:07:48;15.30;93.90
67196;DHT22;54122;53.538;49.366;2023-08-01T01:10:16;15.30;93.90
67196;DHT22;54122;53.538;49.366;2023-08-01T01:12:43;15.20;93.90
67196;DHT22;54122;53.538;49.366;2023-08-01T01:15:09;15.20;93.90
67196;DHT22;54122;53.538;49.366;2023-08-01T01:17:35;15.20;94.00
67196;DHT22;54122;53.538;49.366;2023-08-01T01:20:02;15.20;94.10
67196;DHT22;54122;53.538;49.366;2023-08-01T01:22:29;15.20;94.10
67196;DHT22;54122;53.538;49.366;2023-08-01T01:24:56;15.20;94.30
67196;DHT22;54122;53.538;49.366;2023-08-01T01:27:23;15.20;94.30
67196;DHT22;54122;53.538;49.366;2023-08-01T01:29:50;15.20;94.40
67196;DHT22;54122;53.538;49.366;2023-08-01T01:32:17;15.30;94.50
67196;DHT22;54122;53.538;49.366;2023-08-01T01:34:44;15.40;94.90
67196;DHT22;54122;53.538;49.366;2023-08-01T01:37:11;15.60;94.80
67196;DHT22;54122;53.538;49.366;2023-08-01T01:39:37;15.70;94.80
67196;DHT22;54122;53.538;49.366;2023-08-01T01:42:04;15.90;94.70
67196;DHT22;54122;53.538;49.366;2023-08-01T01:44:30;15.90;94.40
67196;DHT22;54122;53.538;49.366;2023-08-01T01:46:57;16.00;93.90
67196;DHT22;54122;53.538;49.366;2023-08-01T01:49:23;16.00;93.60
67196;DHT22;54122;53.538;49.366;2023-08-01T01:51:51;16.00;93.40
67196;DHT22;54122;53.538;49.366;2023-08-01T01:54:18;15.90;93.30
67196;DHT22;54122;53.538;49.366;2023-08-01T01:56:44;15.90;93.20
67196;DHT22;54122;53.538;49.366;2023-08-01T01:59:10;15.90;93.20
67196;DHT22;54122;53.538;49.366;2023-08-01T02:01:37;15.90;93.20
67196;DHT22;54122;53.538;49.366;2023-08-01T02:04:03;16.00;93.20
67196;DHT22;54122;53.538;49.366;2023-08-01T02:06:29;16.00;93.20
67196;DHT22;54122;53.538;49.366;2023-08-01T02:08:56;16.20;93.30
67196;DHT22;54122;53.538;49.366;2023-08-01T02:11:22;16.80;94.30
67196;DHT22;54122;53.538;49.366;2023-08-01T02:13:49;18.10;91.50
67196;DHT22;54122;53.538;49.366;2023-08-01T02:16:15;19.50;86.20
67196;DHT22;54122;53.538;49.366;2023-08-01T02:18:41;20.20;80.80
67196;DHT22;54122;53.538;49.366;2023-08-01T02:21:08;20.00;79.60
67196;DHT22;54122;53.538;49.366;2023-08-01T02:23:34;19.90;81.60
67196;DHT22;54122;53.538;49.366;2023-08-01T02:26:02;20.40;80.00
67196;DHT22;54122;53.538;49.366;2023-08-01T02:28:28;20.70;78.90
67196;DHT22;54122;53.538;49.366;2023-08-01T02:30:55;20.90;79.00
67196;DHT22;54122;53.538;49.366;2023-08-01T02:33:22;21.50;78.50
67196;DHT22;54122;53.538;49.366;2023-08-01T02:35:48;22.60;74.90
67196;DHT22;54122;53.538;49.366;2023-08-01T02:38:15;23.70;71.10
67196;DHT22;54122;53.538;49.366;2023-08-01T02:40:41;24.80;67.10
67196;DHT22;54122;53.538;49.366;2023-08-01T02:43:07;25.60;64.20
67196;DHT22;54122;53.538;49.366;2023-08-01T02:45:34;26.50;61.80
67196;DHT22;54122;53.538;49.366;2023-08-01T02:48:00;27.30;59.10
67196;DHT22;54122;53.538;49.366;2023-08-01T02:50:26;27.90;57.00
67196;DHT22;54122;53.538;49.366;2023-08-01T02:52:53;28.50;55.10
67196;DHT22;54122;53.538;49.366;2023-08-01T02:55:19;29.10;52.40
67196;DHT22;54122;53.538;49.366;2023-08-01T02:57:45;29.30;51.10
67196;DHT22;54122;53.538;49.366;2023-08-01T03:00:12;29.50;50.00
67196;DHT22;54122;53.538;49.366;2023-08-01T03:02:39;29.70;48.60
67196;DHT22;54122;53.538;49.366;2023-08-01T03:05:09;30.10;47.50
67196;DHT22;54122;53.538;49.366;2023-08-01T03:07:35;30.30;46.60
67196;DHT22;54122;53.538;49.366;2023-08-01T03:10:02;29.90;46.80
67196;DHT22;54122;53.538;49.366;2023-08-01T03:12:28;29.90;46.90
67196;DHT22;54122;53.538;49.366;2023-08-01T03:14:55;30.40;46.20
67196;DHT22;54122;53.538;49.366;2023-08-01T03:17:21;31.20;44.40
67196;DHT22;54122;53.538;49.366;2023-08-01T03:19:47;31.80;42.70
67196;DHT22;54122;53.538;49.366;2023-08-01T03:22:15;32.10;41.60
67196;DHT22;54122;53.538;49.366;2023-08-01T03:24:41;32.20;40.70
67196;DHT22;54122;53.538;49.366;2023-08-01T03:27:08;31.70;41.00
67196;DHT22;54122;53.538;49.366;2023-08-01T03:29:34;31.00;42.30
67196;DHT22;54122;53.538;49.366;2023-08-01T03:32:00;30.90;42.40
67196;DHT22;54122;53.538;49.366;2023-08-01T03:34:27;30.80;41.90
67196;DHT22;54122;53.538;49.366;2023-08-01T03:36:59;31.10;41.90
67196;DHT22;54122;53.538;49.366;2023-08-01T03:39:25;31.80;40.70
67196;DHT22;54122;53.538;49.366;2023-08-01T03:41:51;32.60;39.30
67196;DHT22;54122;53.538;49.366;2023-08-01T03:44:17;33.20;37.90
67196;DHT22;54122;53.538;49.366;2023-08-01T03:46:44;33.60;36.00
67196;DHT22;54122;53.538;49.366;2023-08-01T03:49:10;33.80;35.60
67196;DHT22;54122;53.538;49.366;2023-08-01T03:51:37;34.10;34.90
67196;DHT22;54122;53.538;49.366;2023-08-01T03:54:03;34.30;34.30
67196;DHT22;54122;53.538;49.366;2023-08-01T03:56:30;34.60;33.70
67196;DHT22;54122;53.538;49.366;2023-08-01T03:58:56;35.00;32.90
67196;DHT22;54122;53.538;49.366;2023-08-01T04:01:23;35.10;32.10
67196;DHT22;54122;53.538;49.366;2023-08-01T04:03:49;34.90;31.10
67196;DHT22;54122;53.538;49.366;2023-08-01T04:06:15;34.50;31.50
67196;DHT22;54122;53.538;49.366;2023-08-01T04:08:42;34.50;32.00
67196;DHT22;54122;53.538;49.366;2023-08-01T04:11:08;34.90;31.70
67196;DHT22;54122;53.538;49.366;2023-08-01T04:13:35;35.40;30.70
67196;DHT22;54122;53.538;49.366;2023-08-01T04:16:01;35.60;30.00
67196;DHT22;54122;53.538;49.366;2023-08-01T04:18:30;35.80;30.00
67196;DHT22;54122;53.538;49.366;2023-08-01T04:20:58;36.00;29.70
67196;DHT22;54122;53.538;49.366;2023-08-01T04:23:24;36.00;29.30
67196;DHT22;54122;53.538;49.366;2023-08-01T04:25:50;36.10;28.80
67196;DHT22;54122;53.538;49.366;2023-08-01T04:28:17;36.20;28.80
67196;DHT22;54122;53.538;49.366;2023-08-01T04:30:49;36.40;28.70
67196;DHT22;54122;53.538;49.366;2023-08-01T04:33:15;36.90;28.20
67196;DHT22;54122;53.538;49.366;2023-08-01T04:36:00;37.10;28.00
67196;DHT22;54122;53.538;49.366;2023-08-01T04:39:10;37.20;28.00
67196;DHT22;54122;53.538;49.366;2023-08-01T04:42:19;37.50;27.60
67196;DHT22;54122;53.538;49.366;2023-08-01T04:45:25;37.70;27.00
67196;DHT22;54122;53.538;49.366;2023-08-01T04:48:36;37.20;26.80
67196;DHT22;54122;53.538;49.366;2023-08-01T04:51:42;37.10;27.10
67196;DHT22;54122;53.538;49.366;2023-08-01T04:54:55;37.20;26.80
67196;DHT22;54122;53.538;49.366;2023-08-01T04:58:05;37.00;27.10
67196;DHT22;54122;53.538;49.366;2023-08-01T05:01:16;37.10;27.10
67196;DHT22;54122;53.538;49.366;2023-08-01T05:04:29;37.50;26.90
67196;DHT22;54122;53.538;49.366;2023-08-01T05:07:44;37.60;26.90
67196;DHT22;54122;53.538;49.366;2023-08-01T05:10:55;38.10;26.60
67196;DHT22;54122;53.538;49.366;2023-08-01T05:14:08;38.30;25.90
67196;DHT22;54122;53.538;49.366;2023-08-01T05:17:11;37.90;26.10
67196;DHT22;54122;53.538;49.366;2023-08-01T05:20:28;37.90;26.10
67196;DHT22;54122;53.538;49.366;2023-08-01T05:23:46;38.00;25.80
67196;DHT22;54122;53.538;49.366;2023-08-01T05:27:00;37.80;26.20
67196;DHT22;54122;53.538;49.366;2023-08-01T05:30:03;37.40;26.20
67196;DHT22;54122;53.538;49.366;2023-08-01T05:33:13;37.40;26.30
67196;DHT22;54122;53.538;49.366;2023-08-01T05:36:31;37.80;25.80
67196;DHT22;54122;53.538;49.366;2023-08-01T05:39:39;38.20;25.30
67196;DHT22;54122;53.538;49.366;2023-08-01T05:42:46;38.50;24.90
67196;DHT22;54122;53.538;49.366;2023-08-01T05:45:57;38.40;24.80
67196;DHT22;54122;53.538;49.366;2023-08-01T05:49:05;38.70;24.70
67196;DHT22;54122;53.538;49.366;2023-08-01T05:52:13;38.50;24.60
67196;DHT22;54122;53.538;49.366;2023-08-01T05:55:28;38.10;25.20
67196;DHT22;54122;53.538;49.366;2023-08-01T05:58:28;37.50;25.60
67196;DHT22;54122;53.538;49.366;2023-08-01T06:01:44;37.70;25.50
67196;DHT22;54122;53.538;49.366;2023-08-01T06:05:03;38.60;24.90
67196;DHT22;54122;53.538;49.366;2023-08-01T06:08:12;39.00;23.90
67196;DHT22;54122;53.538;49.366;2023-08-01T06:11:27;39.20;23.40
67196;DHT22;54122;53.538;49.366;2023-08-01T06:14:42;39.20;22.90
67196;DHT22;54122;53.538;49.366;2023-08-01T06:17:54;39.40;22.70
67196;DHT22;54122;53.538;49.366;2023-08-01T06:21:05;38.40;23.40
67196;DHT22;54122;53.538;49.366;2023-08-01T06:24:23;38.50;23.30
67196;DHT22;54122;53.538;49.366;2023-08-01T06:27:37;38.80;22.90
67196;DHT22;54122;53.538;49.366;2023-08-01T06:30:51;39.00;22.70
67196;DHT22;54122;53.538;49.366;2023-08-01T06:34:05;39.10;22.90
67196;DHT22;54122;53.538;49.366;2023-08-01T06:37:19;38.90;22.70
67196;DHT22;54122;53.538;49.366;2023-08-01T06:40:29;38.30;23.10
67196;DHT22;54122;53.538;49.366;2023-08-01T06:43:43;37.60;24.00
67196;DHT22;54122;53.538;49.366;2023-08-01T06:47:01;37.10;24.60
67196;DHT22;54122;53.538;49.366;2023-08-01T06:50:06;36.30;26.20
67196;DHT22;54122;53.538;49.366;2023-08-01T06:53:13;36.00;26.30
67196;DHT22;54122;53.538;49.366;2023-08-01T06:56:25;35.70;26.80
67196;DHT22;54122;53.538;49.366;2023-08-01T06:59:38;35.80;26.40
67196;DHT22;54122;53.538;49.366;2023-08-01T07:02:56;36.40;25.30
67196;DHT22;54122;53.538;49.366;2023-08-01T07:06:07;37.20;23.70
67196;DHT22;54122;53.538;49.366;2023-08-01T07:09:19;36.60;24.40
67196;DHT22;54122;53.538;49.366;2023-08-01T07:12:37;37.20;24.10
67196;DHT22;54122;53.538;49.366;2023-08-01T07:15:51;37.30;24.10
67196;DHT22;54122;53.538;49.366;2023-08-01T07:19:06;38.20;23.20
67196;DHT22;54122;53.538;49.366;2023-08-01T07:22:17;37.70;23.60
67196;DHT22;54122;53.538;49.366;2023-08-01T07:25:29;38.10;23.20
67196;DHT22;54122;53.538;49.366;2023-08-01T07:28:35;38.10;22.70
67196;DHT22;54122;53.538;49.366;2023-08-01T07:31:33;38.40;22.70
67196;DHT22;54122;53.538;49.366;2023-08-01T07:34:45;38.60;22.50
67196;DHT22;54122;53.538;49.366;2023-08-01T07:37:54;38.30;22.60
67196;DHT22;54122;53.538;49.366;2023-08-01T07:41:07;38.10;23.10
67196;DHT22;54122;53.538;49.366;2023-08-01T07:44:19;38.60;22.50
67196;DHT22;54122;53.538;49.366;2023-08-01T07:47:31;38.40;22.90
67196;DHT22;54122;53.538;49.366;2023-08-01T07:50:41;38.30;22.60
67196;DHT22;54122;53.538;49.366;2023-08-01T07:53:53;37.80;22.90
67196;DHT22;54122;53.538;49.366;2023-08-01T07:57:05;37.70;23.50
67196;DHT22;54122;53.538;49.366;2023-08-01T08:00:15;38.40;23.00
67196;DHT22;54122;53.538;49.366;2023-08-01T08:03:35;37.40;23.70
67196;DHT22;54122;53.538;49.366;2023-08-01T08:06:47;37.40;24.60
67196;DHT22;54122;53.538;49.366;2023-08-01T08:10:00;37.10;23.70
67196;DHT22;54122;53.538;49.366;2023-08-01T08:13:12;37.20;23.60
67196;DHT22;54122;53.538;49.366;2023-08-01T08:16:31;37.50;23.60
67196;DHT22;54122;53.538;49.366;2023-08-01T08:19:38;36.80;24.40
67196;DHT22;54122;53.538;49.366;2023-08-01T08:22:53;37.20;23.80
67196;DHT22;54122;53.538;49.366;2023-08-01T08:26:01;37.60;23.40
67196;DHT22;54122;53.538;49.366;2023-08-01T08:29:12;38.20;23.10
67196;DHT22;54122;53.538;49.366;2023-08-01T08:32:20;38.30;22.60
67196;DHT22;54122;53.538;49.366;2023-08-01T08:35:34;38.20;22.30
67196;DHT22;54122;53.538;49.366;2023-08-01T08:38:50;38.10;22.40
67196;DHT22;54122;53.538;49.366;2023-08-01T08:42:04;37.50;22.90
67196;DHT22;54122;53.538;49.366;2023-08-01T08:45:16;36.40;24.50
67196;DHT22;54122;53.538;49.366;2023-08-01T08:48:35;36.00;25.10
67196;DHT22;54122;53.538;49.366;2023-08-01T08:51:49;36.00;24.80
67196;DHT22;54122;53.538;49.366;2023-08-01T08:55:04;36.20;24.90
67196;DHT22;54122;53.538;49.366;2023-08-01T08:58:09;36.10;24.50
67196;DHT22;54122;53.538;49.366;2023-08-01T09:01:18;36.00;24.60
67196;DHT22;54122;53.538;49.366;2023-08-01T09:04:33;35.70;24.70
67196;DHT22;54122;53.538;49.366;2023-08-01T09:07:48;35.50;25.10
67196;DHT22;54122;53.538;49.366;2023-08-01T09:11:04;36.10;24.70
67196;DHT22;54122;53.538;49.366;2023-08-01T09:14:09;36.40;24.20
67196;DHT22;54122;53.538;49.366;2023-08-01T09:17:18;35.90;25.00
67196;DHT22;54122;53.538;49.366;2023-08-01T09:20:27;35.70;25.00
67196;DHT22;54122;53.538;49.366;2023-08-01T09:23:37;35.40;25.20
67196;DHT22;54122;53.538;49.366;2023-08-01T09:26:49;34.30;25.80
67196;DHT22;54122;53.538;49.366;2023-08-01T09:30:11;33.20;27.20
67196;DHT22;54122;53.538;49.366;2023-08-01T09:33:38;32.60;29.00
67196;DHT22;54122;53.538;49.366;2023-08-01T09:37:00;32.50;28.60
67196;DHT22;54122;53.538;49.366;2023-08-01T09:40:19;32.30;28.70
67196;DHT22;54122;53.538;49.366;2023-08-01T09:43:42;31.70;29.30
67196;DHT22;54122;53.538;49.366;2023-08-01T09:47:00;31.30;29.70
67196;DHT22;54122;53.538;49.366;2023-08-01T09:50:22;31.10;29.80
67196;DHT22;54122;53.538;49.366;2023-08-01T09:53:36;30.80;30.00
67196;DHT22;54122;53.538;49.366;2023-08-01T09:56:55;30.80;30.10
67196;DHT22;54122;53.538;49.366;2023-08-01T10:00:04;30.80;29.70
67196;DHT22;54122;53.538;49.366;2023-08-01T10:03:12;30.70;29.70
67196;DHT22;54122;53.538;49.366;2023-08-01T10:06:30;31.20;30.00
67196;DHT22;54122;53.538;49.366;2023-08-01T10:09:51;32.10;29.10
67196;DHT22;54122;53.538;49.366;2023-08-01T10:13:05;32.50;27.70
67196;DHT22;54122;53.538;49.366;2023-08-01T10:16:16;32.50;27.70
67196;DHT22;54122;53.538;49.366;2023-08-01T10:19:33;32.40;27.50
67196;DHT22;54122;53.538;49.366;2023-08-01T10:22:52;32.40;28.00
67196;DHT22;54122;53.538;49.366;2023-08-01T10:26:11;32.60;28.40
67196;DHT22;54122;53.538;49.366;2023-08-01T10:29:36;32.80;27.90
67196;DHT22;54122;53.538;49.366;2023-08-01T10:32:55;32.30;27.90
67196;DHT22;54122;53.538;49.366;2023-08-01T10:36:32;31.60;28.30
67196;DHT22;54122;53.538;49.366;2023-08-01T10:39:59;31.00;28.80
67196;DHT22;54122;53.538;49.366;2023-08-01T10:42:58;30.90;29.90
67196;DHT22;54122;53.538;49.366;2023-08-01T10:46:11;31.00;29.90
67196;DHT22;54122;53.538;49.366;2023-08-01T10:52:48;31.00;30.30
67196;DHT22;54122;53.538;49.366;2023-08-01T10:56:07;31.00;30.00
67196;DHT22;54122;53.538;49.366;2023-08-01T10:59:28;30.80;30.00
67196;DHT22;54122;53.538;49.366;2023-08-01T11:02:51;30.90;30.20
67196;DHT22;54122;53.538;49.366;2023-08-01T11:06:03;31.20;29.70
67196;DHT22;54122;53.538;49.366;2023-08-01T11:09:19;31.40;29.00
67196;DHT22;54122;53.538;49.366;2023-08-01T11:12:31;31.50;29.00
67196;DHT22;54122;53.538;49.366;2023-08-01T11:15:42;31.60;29.20
67196;DHT22;54122;53.538;49.366;2023-08-01T11:18:58;31.80;29.20
67196;DHT22;54122;53.538;49.366;2023-08-01T11:22:17;31.70;29.50
67196;DHT22;54122;53.538;49.366;2023-08-01T11:25:40;31.50;29.20
67196;DHT22;54122;53.538;49.366;2023-08-01T11:28:48;31.10;29.40
67196;DHT22;54122;53.538;49.366;2023-08-01T11:32:13;30.80;30.00
67196;DHT22;54122;53.538;49.366;2023-08-01T11:35:23;30.60;29.90
67196;DHT22;54122;53.538;49.366;2023-08-01T11:38:44;30.80;30.50
67196;DHT22;54122;53.538;49.366;2023-08-01T11:42:16;31.20;30.10
67196;DHT22;54122;53.538;49.366;2023-08-01T11:45:27;31.40;29.70
67196;DHT22;54122;53.538;49.366;2023-08-01T11:48:45;31.40;29.70
67196;DHT22;54122;53.538;49.366;2023-08-01T11:51:52;31.30;29.70
67196;DHT22;54122;53.538;49.366;2023-08-01T11:55:05;31.20;29.80
67196;DHT22;54122;53.538;49.366;2023-08-01T11:58:31;31.30;29.50
67196;DHT22;54122;53.538;49.366;2023-08-01T12:01:46;31.40;29.60
67196;DHT22;54122;53.538;49.366;2023-08-01T12:05:05;31.20;29.50
67196;DHT22;54122;53.538;49.366;2023-08-01T12:08:11;31.20;29.70
67196;DHT22;54122;53.538;49.366;2023-08-01T12:11:25;31.20;29.70
67196;DHT22;54122;53.538;49.366;2023-08-01T12:14:41;31.50;30.40
67196;DHT22;54122;53.538;49.366;2023-08-01T12:17:52;31.70;29.40
67196;DHT22;54122;53.538;49.366;2023-08-01T12:21:02;31.60;29.20
67196;DHT22;54122;53.538;49.366;2023-08-01T12:24:09;31.50;29.10
67196;DHT22;54122;53.538;49.366;2023-08-01T12:27:21;31.40;29.30
67196;DHT22;54122;53.538;49.366;2023-08-01T12:30:38;31.40;29.50
67196;DHT22;54122;53.538;49.366;2023-08-01T12:34:35;31.60;29.80
67196;DHT22;54122;53.538;49.366;2023-08-01T12:37:49;31.80;29.20
67196;DHT22;54122;53.538;49.366;2023-08-01T12:41:02;31.60;28.90
67196;DHT22;54122;53.538;49.366;2023-08-01T12:44:09;31.20;29.40
67196;DHT22;54122;53.538;49.366;2023-08-01T12:47:22;30.90;29.80
67196;DHT22;54122;53.538;49.366;2023-08-01T12:50:33;30.60;30.00
67196;DHT22;54122;53.538;49.366;2023-08-01T12:53:51;30.50;30.30
67196;DHT22;54122;53.538;49.366;2023-08-01T12:57:04;30.60;30.30
67196;DHT22;54122;53.538;49.366;2023-08-01T13:00:19;30.60;30.30
67196;DHT22;54122;53.538;49.366;2023-08-01T13:03:26;30.70;29.90
67196;DHT22;54122;53.538;49.366;2023-08-01T13:06:41;30.60;30.00
67196;DHT22;54122;53.538;49.366;2023-08-01T13:09:52;30.60;30.10
67196;DHT22;54122;53.538;49.366;2023-08-01T13:13:13;30.60;30.00
67196;DHT22;54122;53.538;49.366;2023-08-01T13:16:21;30.60;30.00
67196;DHT22;54122;53.538;49.366;2023-08-01T13:19:37;30.50;30.00
67196;DHT22;54122;53.538;49.366;2023-08-01T13:22:52;30.50;30.30
67196;DHT22;54122;53.538;49.366;2023-08-01T13:26:13;30.60;30.30
67196;DHT22;54122;53.538;49.366;2023-08-01T13:29:19;30.90;30.00
67196;DHT22;54122;53.538;49.366;2023-08-01T13:32:41;31.00;29.60
67196;DHT22;54122;53.538;49.366;2023-08-01T13:35:55;31.10;29.80
67196;DHT22;54122;53.538;49.366;2023-08-01T13:39:07;31.00;29.70
67196;DHT22;54122;53.538;49.366;2023-08-01T13:42:13;30.80;29.90
67196;DHT22;54122;53.538;49.366;2023-08-01T13:45:23;30.60;29.90
67196;DHT22;54122;53.538;49.366;2023-08-01T13:48:33;30.30;30.50
67196;DHT22;54122;53.538;49.366;2023-08-01T13:51:44;30.10;30.90
67196;DHT22;54122;53.538;49.366;2023-08-01T13:54:55;30.10;31.10
67196;DHT22;54122;53.538;49.366;2023-08-01T13:58:13;30.20;30.90
67196;DHT22;54122;53.538;49.366;2023-08-01T14:01:28;30.60;30.40
67196;DHT22;54122;53.538;49.366;2023-08-01T14:04:41;30.70;30.30
67196;DHT22;54122;53.538;49.366;2023-08-01T14:07:51;30.60;30.00
67196;DHT22;54122;53.538;49.366;2023-08-01T14:11:02;30.40;30.20
67196;DHT22;54122;53.538;49.366;2023-08-01T14:14:18;30.10;30.50
67196;DHT22;54122;53.538;49.366;2023-08-01T14:17:24;29.90;31.00
67196;DHT22;54122;53.538;49.366;2023-08-01T14:20:44;29.70;31.00
67196;DHT22;54122;53.538;49.366;2023-08-01T14:23:57;29.70;31.30
67196;DHT22;54122;53.538;49.366;2023-08-01T14:27:16;29.80;31.10
67196;DHT22;54122;53.538;49.366;2023-08-01T14:30:33;29.90;31.20
67196;DHT22;54122;53.538;49.366;2023-08-01T14:33:49;29.90;31.00
67196;DHT22;54122;53.538;49.366;2023-08-01T14:37:05;29.90;31.10
67196;DHT22;54122;53.538;49.366;2023-08-01T14:40:23;29.60;31.40
67196;DHT22;54122;53.538;49.366;2023-08-01T14:43:39;29.20;31.80
67196;DHT22;54122;53.538;49.366;2023-08-01T14:47:04;29.10;32.40
67196;DHT22;54122;53.538;49.366;2023-08-01T14:50:26;29.00;32.70
67196;DHT22;54122;53.538;49.366;2023-08-01T14:53:39;29.00;32.50
67196;DHT22;54122;53.538;49.366;2023-08-01T14:56:54;29.00;32.40
67196;DHT22;54122;53.538;49.366;2023-08-01T15:00:11;29.10;32.50
67196;DHT22;54122;53.538;49.366;2023-08-01T15:03:23;29.10;32.70
67196;DHT22;54122;53.538;49.366;2023-08-01T15:06:29;28.80;33.10
67196;DHT22;54122;53.538;49.366;2023-08-01T15:09:46;28.60;33.70
67196;DHT22;54122;53.538;49.366;2023-08-01T15:12:58;28.30;34.20
67196;DHT22;54122;53.538;49.366;2023-08-01T15:16:11;27.90;34.50
67196;DHT22;54122;53.538;49.366;2023-08-01T15:19:25;27.70;35.10
67196;DHT22;54122;53.538;49.366;2023-08-01T15:22:39;27.50;35.40
67196;DHT22;54122;53.538;49.366;2023-08-01T15:25:52;27.30;35.90
67196;DHT22;54122;53.538;49.366;2023-08-01T15:29:03;27.20;36.30
67196;DHT22;54122;53.538;49.366;2023-08-01T15:32:26;27.10;36.70
67196;DHT22;54122;53.538;49.366;2023-08-01T15:35:40;27.00;37.10
67196;DHT22;54122;53.538;49.366;2023-08-01T15:38:56;26.80;37.30
67196;DHT22;54122;53.538;49.366;2023-08-01T15:42:05;26.70;37.80
67196;DHT22;54122;53.538;49.366;2023-08-01T15:45:23;26.60;38.20
67196;DHT22;54122;53.538;49.366;2023-08-01T15:48:35;26.50;38.50
67196;DHT22;54122;53.538;49.366;2023-08-01T15:51:53;26.30;38.30
67196;DHT22;54122;53.538;49.366;2023-08-01T15:55:08;26.20;38.90
67196;DHT22;54122;53.538;49.366;2023-08-01T15:58:21;26.10;39.20
67196;DHT22;54122;53.538;49.366;2023-08-01T16:01:40;26.00;39.20
67196;DHT22;54122;53.538;49.366;2023-08-01T16:04:46;25.90;39.50
67196;DHT22;54122;53.538;49.366;2023-08-01T16:07:59;25.80;39.70
67196;DHT22;54122;53.538;49.366;2023-08-01T16:11:13;25.70;40.00
67196;DHT22;54122;53.538;49.366;2023-08-01T16:14:36;25.60;40.60
67196;DHT22;54122;53.538;49.366;2023-08-01T16:17:46;25.50;41.70
67196;DHT22;54122;53.538;49.366;2023-08-01T16:20:58;25.20;42.90
67196;DHT22;54122;53.538;49.366;2023-08-01T16:24:08;24.90;44.00
67196;DHT22;54122;53.538;49.366;2023-08-01T16:27:19;24.70;44.80
67196;DHT22;54122;53.538;49.366;2023-08-01T16:30:33;24.40;45.40
67196;DHT22;54122;53.538;49.366;2023-08-01T16:33:49;24.20;46.10
67196;DHT22;54122;53.538;49.366;2023-08-01T16:37:00;24.00;46.80
67196;DHT22;54122;53.538;49.366;2023-08-01T16:40:12;23.90;47.40
67196;DHT22;54122;53.538;49.366;2023-08-01T16:43:20;23.70;48.00
67196;DHT22;54122;53.538;49.366;2023-08-01T16:46:35;23.50;48.60
67196;DHT22;54122;53.538;49.366;2023-08-01T16:49:54;23.30;49.20
67196;DHT22;54122;53.538;49.366;2023-08-01T16:53:12;23.20;49.80
67196;DHT22;54122;53.538;49.366;2023-08-01T16:56:19;23.00;50.30
67196;DHT22;54122;53.538;49.366;2023-08-01T16:59:21;22.80;50.90
67196;DHT22;54122;53.538;49.366;2023-08-01T17:02:34;22.70;51.30
67196;DHT22;54122;53.538;49.366;2023-08-01T17:05:01;22.60;51.70
67196;DHT22;54122;53.538;49.366;2023-08-01T17:07:28;22.50;52.10
67196;DHT22;54122;53.538;49.366;2023-08-01T17:09:57;22.40;52.30
67196;DHT22;54122;53.538;49.366;2023-08-01T17:12:24;22.30;52.80
67196;DHT22;54122;53.538;49.366;2023-08-01T17:14:50;22.20;52.90
67196;DHT22;54122;53.538;49.366;2023-08-01T17:17:17;22.10;53.20
67196;DHT22;54122;53.538;49.366;2023-08-01T17:19:46;22.00;53.70
67196;DHT22;54122;53.538;49.366;2023-08-01T17:22:12;21.90;54.30
67196;DHT22;54122;53.538;49.366;2023-08-01T17:24:39;21.80;54.70
67196;DHT22;54122;53.538;49.366;2023-08-01T17:27:05;21.80;55.30
67196;DHT22;54122;53.538;49.366;2023-08-01T17:29:32;21.70;55.80
67196;DHT22;54122;53.538;49.366;2023-08-01T17:31:58;21.60;56.20
67196;DHT22;54122;53.538;49.366;2023-08-01T17:34:24;21.60;56.50
67196;DHT22;54122;53.538;49.366;2023-08-01T17:36:50;21.50;56.70
67196;DHT22;54122;53.538;49.366;2023-08-01T17:39:17;21.40;57.20
67196;DHT22;54122;53.538;49.366;2023-08-01T17:41:43;21.30;57.60
67196;DHT22;54122;53.538;49.366;2023-08-01T17:44:09;21.30;57.70
67196;DHT22;54122;53.538;49.366;2023-08-01T17:46:36;21.10;59.50
67196;DHT22;54122;53.538;49.366;2023-08-01T17:49:02;21.10;58.70
67196;DHT22;54122;53.538;49.366;2023-08-01T17:51:30;21.00;58.90
67196;DHT22;54122;53.538;49.366;2023-08-01T17:53:57;20.90;59.20
67196;DHT22;54122;53.538;49.366;2023-08-01T17:56:26;20.90;59.90
67196;DHT22;54122;53.538;49.366;2023-08-01T17:58:52;20.80;60.00
67196;DHT22;54122;53.538;49.366;2023-08-01T18:01:18;20.70;60.10
67196;DHT22;54122;53.538;49.366;2023-08-01T18:03:46;20.60;60.40
67196;DHT22;54122;53.538;49.366;2023-08-01T18:06:13;20.50;60.70
67196;DHT22;54122;53.538;49.366;2023-08-01T18:08:41;20.50;61.00
67196;DHT22;54122;53.538;49.366;2023-08-01T18:11:14;20.50;61.20
67196;DHT22;54122;53.538;49.366;2023-08-01T18:13:44;20.50;61.50
67196;DHT22;54122;53.538;49.366;2023-08-01T18:16:29;20.40;61.80
67196;DHT22;54122;53.538;49.366;2023-08-01T18:18:55;20.40;61.90